Time;durP1;ratioP1;P1;durP2;ratioP2;P2;SDS_P1;SDS_P2;PMS_P1;PMS_P2;Temp;Humidity;BMP_temperature;BMP_pressure;BME280_temperature;BME280_humidity;BME280_pressure;Samples;Min_cycle;Max_cycle;Signal;HPM_P1;HPM_P2
2022/12/04 00:01:38;;;;;;;52.50;29.43;;;;;;;-0.63;100.00;101646.69;4990755;28;20529;-64
2022/12/04 00:04:05;;;;;;;55.40;28.30;;;;;;;-0.62;100.00;101634.84;4990642;28;20026;-64
2022/12/04 00:06:32;;;;;;;55.20;29.67;;;;;;;-0.62;100.00;101643.41;4991114;28;20096;-64
2022/12/04 00:08:58;;;;;;;55.13;28.33;;;;;;;-0.66;100.00;101645.50;4991156;28;20026;-64
2022/12/04 00:11:26;;;;;;;56.83;29.37;;;;;;;-0.66;100.00;101632.78;4989987;28;20382;-64
2022/12/04 00:13:51;;;;;;;58.87;29.93;;;;;;;-0.64;100.00;101628.72;4990677;28;20117;-64
2022/12/04 00:16:20;;;;;;;53.80;27.97;;;;;;;-0.62;100.00;101627.22;4989658;28;20030;-64
2022/12/04 00:18:46;;;;;;;55.20;30.57;;;;;;;-0.59;100.00;101630.03;4985964;28;20037;-64
2022/12/04 00:21:13;;;;;;;51.73;28.67;;;;;;;-0.61;100.00;101624.78;4990980;28;20019;-64
2022/12/04 00:23:39;;;;;;;55.27;30.03;;;;;;;-0.61;100.00;101629.91;4979559;28;20497;-64
2022/12/04 00:26:07;;;;;;;52.93;29.10;;;;;;;-0.60;100.00;101630.78;4990546;28;20057;-64
2022/12/04 00:28:33;;;;;;;54.70;28.07;;;;;;;-0.61;100.00;101629.00;4990627;28;20018;-64
2022/12/04 00:30:58;;;;;;;54.23;28.03;;;;;;;-0.60;100.00;101625.69;4989797;28;20030;-64
2022/12/04 00:33:24;;;;;;;51.70;29.20;;;;;;;-0.61;100.00;101626.44;4989106;28;20018;-64
2022/12/04 00:35:59;;;;;;;58.17;29.53;;;;;;;-0.63;100.00;101626.31;4990105;28;20038;-64
2022/12/04 00:38:25;;;;;;;54.33;28.83;;;;;;;-0.63;100.00;101630.53;4978824;28;20022;-64
2022/12/04 00:40:52;;;;;;;52.57;28.90;;;;;;;-0.62;100.00;101639.94;4990200;28;20368;-64
2022/12/04 00:43:17;;;;;;;50.13;26.77;;;;;;;-0.62;100.00;101627.22;4990081;28;20026;-64
2022/12/04 00:45:43;;;;;;;51.13;28.00;;;;;;;-0.62;100.00;101622.13;4987748;28;20054;-64
2022/12/04 00:48:08;;;;;;;54.47;28.77;;;;;;;-0.61;100.00;101621.34;4978783;28;20026;-64
2022/12/04 00:50:34;;;;;;;53.53;28.37;;;;;;;-0.61;100.00;101618.81;4989916;28;20033;-64
2022/12/04 00:52:59;;;;;;;53.40;29.90;;;;;;;-0.61;100.00;101617.16;4990177;28;20080;-64
2022/12/04 00:55:24;;;;;;;57.23;29.10;;;;;;;-0.65;100.00;101620.19;4987430;28;20440;-64
2022/12/04 00:57:50;;;;;;;58.77;29.77;;;;;;;-0.66;100.00;101625.13;4970454;28;20101;-64
2022/12/04 01:00:15;;;;;;;55.17;29.27;;;;;;;-0.65;100.00;101622.72;4984884;28;20034;-64
2022/12/04 01:02:41;;;;;;;56.90;30.27;;;;;;;-0.65;100.00;101622.72;4990411;28;20034;-65
2022/12/04 01:05:06;;;;;;;53.73;29.00;;;;;;;-0.65;100.00;101626.94;4989644;28;20050;-64
2022/12/04 01:07:32;;;;;;;49.53;29.07;;;;;;;-0.64;100.00;101623.63;4989963;28;20018;-64
2022/12/04 01:09:57;;;;;;;51.27;30.73;;;;;;;-0.66;100.00;101626.03;4989320;28;20050;-64
2022/12/04 01:12:22;;;;;;;51.07;28.63;;;;;;;-0.63;100.00;101631.41;4989703;28;20026;-65
2022/12/04 01:14:48;;;;;;;52.40;28.23;;;;;;;-0.64;100.00;101629.63;4989424;28;20049;-64
2022/12/04 01:17:13;;;;;;;55.47;29.90;;;;;;;-0.61;100.00;101634.09;4989231;28;20065;-64
2022/12/04 01:19:38;;;;;;;50.77;29.10;;;;;;;-0.64;100.00;101633.81;4989391;28;20035;-64
2022/12/04 01:22:04;;;;;;;52.70;28.63;;;;;;;-0.64;100.00;101637.25;4989222;28;20034;-64
2022/12/04 01:24:29;;;;;;;51.37;29.07;;;;;;;-0.63;100.00;101635.63;4989866;28;20447;-64
2022/12/04 01:26:54;;;;;;;50.40;28.03;;;;;;;-0.63;100.00;101633.94;4989054;28;20124;-64
2022/12/04 01:29:20;;;;;;;51.60;28.60;;;;;;;-0.63;100.00;101627.97;4989509;28;20034;-64
2022/12/04 01:31:45;;;;;;;49.33;27.47;;;;;;;-0.63;100.00;101636.50;4988951;28;20023;-64
2022/12/04 01:34:10;;;;;;;48.47;28.00;;;;;;;-0.62;100.00;101633.22;4989420;28;20073;-64
2022/12/04 01:36:35;;;;;;;48.20;27.57;;;;;;;-0.61;100.00;101640.06;4988754;28;20046;-64
2022/12/04 01:39:01;;;;;;;51.77;29.87;;;;;;;-0.59;100.00;101639.34;4989447;28;20049;-64
2022/12/04 01:41:29;;;;;;;53.53;30.17;;;;;;;-0.57;100.00;101636.16;4976298;28;20459;-64
2022/12/04 01:44:13;;;;;;;52.77;29.40;;;;;;;-0.56;100.00;101634.50;4988869;28;20069;-64
2022/12/04 01:46:39;;;;;;;50.53;28.90;;;;;;;-0.54;100.00;101627.91;4979248;28;20273;-64
2022/12/04 01:49:09;;;;;;;56.33;30.63;;;;;;;-0.56;100.00;101616.69;4987989;28;20498;-64
2022/12/04 01:51:42;;;;;;;50.88;27.67;;;;;;;-0.55;100.00;101627.00;4988783;28;20021;-64
2022/12/04 01:54:15;;;;;;;52.20;28.57;;;;;;;-0.57;100.00;101627.63;4988639;28;20019;-64
2022/12/04 01:57:04;;;;;;;50.23;27.50;;;;;;;-0.59;100.00;101616.44;4988724;28;20105;-64
2022/12/04 01:59:38;;;;;;;51.67;28.63;;;;;;;-0.58;100.00;101615.66;4979801;28;20136;-64
2022/12/04 02:02:08;;;;;;;47.93;28.53;;;;;;;-0.59;100.00;101612.19;4987949;28;20451;-64
2022/12/04 02:04:35;;;;;;;51.27;28.87;;;;;;;-0.59;100.00;101612.19;4988901;28;20029;-64
2022/12/04 02:07:00;;;;;;;53.23;29.27;;;;;;;-0.58;100.00;101613.09;4988658;28;20374;-64
2022/12/04 02:09:28;;;;;;;51.87;29.37;;;;;;;-0.57;100.00;101622.53;4988617;28;20049;-65
2022/12/04 02:11:59;;;;;;;48.90;29.00;;;;;;;-0.58;100.00;101618.19;4987778;28;20056;-64
2022/12/04 02:14:37;;;;;;;50.20;28.13;;;;;;;-0.57;100.00;101619.97;4988452;28;20525;-64
2022/12/04 02:17:14;;;;;;;53.90;30.13;;;;;;;-0.60;100.00;101615.50;4987944;28;20383;-64
2022/12/04 02:19:59;;;;;;;47.13;28.43;;;;;;;-0.60;100.00;101607.88;4988780;28;20045;-64
2022/12/04 02:22:46;;;;;;;51.40;28.17;;;;;;;-0.60;100.00;101610.44;4987260;28;20651;-64
2022/12/04 02:25:44;;;;;;;53.50;29.43;;;;;;;-0.58;100.00;101605.47;4987886;28;20137;-64
2022/12/04 02:28:27;;;;;;;53.03;28.47;;;;;;;-0.59;100.00;101612.19;4961229;28;20042;-64
2022/12/04 02:30:57;;;;;;;51.80;29.23;;;;;;;-0.63;100.00;101620.34;4988094;28;20045;-64
2022/12/04 02:33:28;;;;;;;50.70;30.03;;;;;;;-0.66;100.00;101613.31;4988535;28;20030;-64
2022/12/04 02:36:15;;;;;;;48.33;27.73;;;;;;;-0.64;100.00;101614.34;4974630;28;20046;-64
2022/12/04 02:38:51;;;;;;;54.07;29.43;;;;;;;-0.63;100.00;101610.16;4981088;28;20841;-64
2022/12/04 02:41:24;;;;;;;55.60;30.50;;;;;;;-0.63;100.00;101607.63;4987973;28;20037;-64
2022/12/04 02:43:55;;;;;;;53.50;30.43;;;;;;;-0.63;100.00;101613.56;4987776;28;20550;-64
2022/12/04 02:46:31;;;;;;;52.60;30.87;;;;;;;-0.62;100.00;101605.19;4987195;28;20105;-65
2022/12/04 02:49:03;;;;;;;49.90;30.17;;;;;;;-0.61;100.00;101613.72;4987984;28;20029;-64
2022/12/04 02:51:33;;;;;;;48.13;28.60;;;;;;;-0.61;100.00;101606.97;4988019;28;20868;-64
2022/12/04 02:54:04;;;;;;;50.65;29.90;;;;;;;-0.59;100.00;101602.00;4987527;28;20041;-64
2022/12/04 02:56:36;;;;;;;51.58;30.92;;;;;;;-0.58;100.00;101602.91;4987207;28;20026;-64
2022/12/04 02:59:08;;;;;;;51.43;30.47;;;;;;;-0.59;100.00;101593.50;4986666;28;20061;-64
2022/12/04 03:01:39;;;;;;;52.03;30.60;;;;;;;-0.61;100.00;101599.34;4986887;28;20034;-64
2022/12/04 03:04:12;;;;;;;53.60;30.85;;;;;;;-0.60;100.00;101592.59;4985458;28;20018;-64
2022/12/04 03:06:41;;;;;;;52.20;30.00;;;;;;;-0.60;100.00;101592.59;4987237;28;20022;-64
2022/12/04 03:09:18;;;;;;;54.70;31.17;;;;;;;-0.61;100.00;101598.44;4987214;28;20309;-64
2022/12/04 03:11:58;;;;;;;49.57;29.27;;;;;;;-0.60;100.00;101597.69;4984963;28;20026;-64
2022/12/04 03:14:32;;;;;;;50.63;30.77;;;;;;;-0.59;100.00;101602.00;4987203;28;20383;-65
2022/12/04 03:17:03;;;;;;;54.97;30.53;;;;;;;-0.61;100.00;101606.06;4986675;28;20019;-64
2022/12/04 03:19:36;;;;;;;55.40;32.20;;;;;;;-0.63;100.00;101605.06;4985476;28;20431;-64
2022/12/04 03:22:12;;;;;;;57.97;32.57;;;;;;;-0.64;100.00;101600.72;4984540;28;20023;-64
2022/12/04 03:24:44;;;;;;;52.73;30.40;;;;;;;-0.64;100.00;101600.72;4985423;28;20382;-64
2022/12/04 03:27:33;;;;;;;53.60;30.20;;;;;;;-0.68;100.00;101604.63;4985586;28;20058;-64
2022/12/04 03:30:08;;;;;;;52.10;29.50;;;;;;;-0.66;100.00;101594.59;4986370;28;20045;-64
2022/12/04 03:32:43;;;;;;;53.60;30.70;;;;;;;-0.66;100.00;101594.59;4987353;28;20034;-64
2022/12/04 03:35:18;;;;;;;54.83;32.17;;;;;;;-0.66;100.00;101590.41;4987053;28;20050;-64
2022/12/04 03:37:49;;;;;;;56.57;31.37;;;;;;;-0.69;100.00;101589.22;4978913;28;20077;-64
2022/12/04 03:40:43;;;;;;;57.53;32.40;;;;;;;-0.70;100.00;101583.22;4987563;28;20022;-64
2022/12/04 03:43:33;;;;;;;53.40;30.77;;;;;;;-0.73;100.00;101591.50;4986234;28;20545;-64
2022/12/04 03:46:12;;;;;;;53.73;31.33;;;;;;;-0.73;100.00;101585.50;4979431;28;20062;-64
2022/12/04 03:48:46;;;;;;;55.47;30.60;;;;;;;-0.73;100.00;101586.41;4984419;28;20022;-64
2022/12/04 03:51:17;;;;;;;54.40;30.87;;;;;;;-0.73;100.00;101586.41;4986810;28;20034;-64
2022/12/04 03:53:54;;;;;;;54.60;30.50;;;;;;;-0.71;100.00;101580.53;4987165;28;20157;-64
2022/12/04 03:56:31;;;;;;;57.90;32.07;;;;;;;-0.73;100.00;101585.50;4986338;28;20034;-64
2022/12/04 03:59:05;;;;;;;56.33;30.83;;;;;;;-0.71;100.00;101580.53;4986646;28;20551;-64
2022/12/04 04:01:41;;;;;;;52.70;30.43;;;;;;;-0.71;100.00;101591.63;4986712;28;20081;-64
2022/12/04 04:04:12;;;;;;;51.93;31.17;;;;;;;-0.70;100.00;101582.34;4986139;28;20037;-64
2022/12/04 04:06:52;;;;;;;53.70;30.13;;;;;;;-0.69;100.00;101581.59;4987060;28;20353;-64
2022/12/04 04:09:23;;;;;;;56.03;30.93;;;;;;;-0.71;100.00;101583.09;4990003;28;20026;-64
2022/12/04 04:11:55;;;;;;;58.13;33.45;;;;;;;-0.71;100.00;101580.53;4990363;28;20026;-64
2022/12/04 04:25:43;;;;;;;56.03;32.27;;;;;;;-0.76;100.00;101588.69;4989735;28;20048;-64
2022/12/04 04:28:31;;;;;;;54.47;31.60;;;;;;;-0.75;100.00;101592.09;4990302;28;20061;-64
2022/12/04 04:31:06;;;;;;;53.80;31.20;;;;;;;-0.76;100.00;101582.69;4988766;28;20095;-64
2022/12/04 04:33:37;;;;;;;55.27;31.87;;;;;;;-0.76;100.00;101583.59;4989881;28;20133;-64
2022/12/04 04:36:20;;;;;;;58.37;31.63;;;;;;;-0.75;100.00;101580.28;4990208;28;20097;-64
2022/12/04 04:38:57;;;;;;;52.70;31.30;;;;;;;-0.75;100.00;101576.84;4989734;28;20114;-64
2022/12/04 04:41:32;;;;;;;58.63;32.10;;;;;;;-0.75;100.00;101577.72;4975582;28;20026;-64
2022/12/04 04:44:20;;;;;;;58.10;32.23;;;;;;;-0.73;100.00;101578.78;4990180;28;20467;-65
2022/12/04 04:46:51;;;;;;;53.27;30.37;;;;;;;-0.69;100.00;101579.03;4980322;28;20073;-64
2022/12/04 04:49:21;;;;;;;54.97;33.05;;;;;;;-0.69;100.00;101589.22;4990363;28;20081;-64
2022/12/04 04:51:47;;;;;;;60.67;33.23;;;;;;;-0.69;100.00;101581.59;4989392;28;20026;-64
2022/12/04 04:54:15;;;;;;;53.80;32.10;;;;;;;-0.71;100.00;101588.19;4989711;28;20029;-64
2022/12/04 04:56:43;;;;;;;52.53;33.00;;;;;;;-0.73;100.00;101586.41;4990106;28;20018;-64
2022/12/04 04:59:08;;;;;;;55.17;31.63;;;;;;;-0.73;100.00;101588.94;4989829;28;20506;-64
2022/12/04 05:01:35;;;;;;;51.63;30.50;;;;;;;-0.71;100.00;101585.63;4989050;28;20022;-64
2022/12/04 05:04:02;;;;;;;50.43;30.47;;;;;;;-0.71;100.00;101590.72;4989891;28;20026;-64
2022/12/04 05:06:28;;;;;;;55.30;30.20;;;;;;;-0.74;100.00;101597.34;4989348;28;20101;-61
2022/12/04 05:08:53;;;;;;;60.43;33.87;;;;;;;-0.71;100.00;101601.81;4989909;28;20105;-61
2022/12/04 05:11:18;;;;;;;57.73;31.97;;;;;;;-0.71;100.00;101595.81;4984865;28;20035;-62
2022/12/04 05:13:43;;;;;;;59.17;31.33;;;;;;;-0.71;100.00;101591.63;4980943;28;20614;-62
2022/12/04 05:16:11;;;;;;;57.57;32.07;;;;;;;-0.70;100.00;101597.63;4988664;28;20034;-64
2022/12/04 05:18:37;;;;;;;59.20;32.17;;;;;;;-0.70;100.00;101582.34;4989386;28;20022;-64
2022/12/04 05:21:16;;;;;;;53.77;31.70;;;;;;;-0.70;100.00;101583.22;4988798;28;20101;-64
2022/12/04 05:23:42;;;;;;;55.17;32.50;;;;;;;-0.67;100.00;101595.34;4989480;28;20375;-64
2022/12/04 05:26:07;;;;;;;56.40;31.33;;;;;;;-0.67;100.00;101590.25;4989071;28;20028;-64
2022/12/04 05:28:33;;;;;;;51.73;30.87;;;;;;;-0.68;100.00;101585.91;4988720;28;20113;-64
2022/12/04 05:31:00;;;;;;;54.63;31.23;;;;;;;-0.66;100.00;101587.84;4988899;28;20104;-64
2022/12/04 05:33:26;;;;;;;51.33;29.87;;;;;;;-0.64;100.00;101585.44;4976334;28;20026;-64
2022/12/04 05:36:10;;;;;;;54.43;31.83;;;;;;;-0.65;100.00;101581.97;4987716;28;20030;-64
2022/12/04 05:38:36;;;;;;;55.67;31.60;;;;;;;-0.65;100.00;101593.84;4978224;28;20010;-64
2022/12/04 05:41:04;;;;;;;54.83;30.67;;;;;;;-0.65;100.00;101588.75;4988509;28;20491;-64
2022/12/04 05:43:30;;;;;;;55.13;32.37;;;;;;;-0.64;100.00;101587.97;4987929;28;20490;-64
2022/12/04 05:46:04;;;;;;;54.53;31.13;;;;;;;-0.64;100.00;101588.88;4986542;28;20046;-64
2022/12/04 05:48:30;;;;;;;53.40;30.67;;;;;;;-0.63;100.00;101582.16;4984299;28;20034;-64
2022/12/04 05:50:56;;;;;;;53.03;30.30;;;;;;;-0.63;100.00;101579.59;4988599;28;20034;-64
2022/12/04 05:53:21;;;;;;;52.63;32.00;;;;;;;-0.63;100.00;101583.03;4988143;28;20471;-64
2022/12/04 05:55:54;;;;;;;52.80;31.30;;;;;;;-0.61;100.00;101575.50;4988091;28;20406;-64
2022/12/04 05:58:19;;;;;;;50.37;30.30;;;;;;;-0.62;100.00;101573.75;4988100;28;20124;-61
2022/12/04 06:00:44;;;;;;;52.73;31.20;;;;;;;-0.63;100.00;101575.38;4984937;28;20512;-62
2022/12/04 06:03:10;;;;;;;51.00;30.40;;;;;;;-0.63;100.00;101569.41;4980968;28;20372;-64
2022/12/04 06:05:35;;;;;;;53.70;32.23;;;;;;;-0.63;100.00;101567.75;4985463;28;20080;-64
2022/12/04 06:08:00;;;;;;;51.93;31.40;;;;;;;-0.63;100.00;101569.41;4988065;28;20022;-64
2022/12/04 06:10:26;;;;;;;57.03;31.47;;;;;;;-0.63;100.00;101564.31;4988456;28;20030;-64
2022/12/04 06:12:56;;;;;;;57.87;30.97;;;;;;;-0.62;100.00;101571.19;4987890;28;20068;-64
2022/12/04 06:15:21;;;;;;;53.83;32.40;;;;;;;-0.63;100.00;101559.22;4987114;28;20378;-64
2022/12/04 06:17:46;;;;;;;55.57;32.10;;;;;;;-0.64;100.00;101562.53;4988113;28;20032;-64
2022/12/04 06:20:12;;;;;;;51.30;30.13;;;;;;;-0.63;100.00;101565.19;4988288;28;20089;-64
2022/12/04 06:22:37;;;;;;;55.17;32.77;;;;;;;-0.61;100.00;101565.31;4987937;28;20029;-64
2022/12/04 06:25:03;;;;;;;52.23;31.57;;;;;;;-0.61;100.00;101570.41;4988435;28;20517;-64
2022/12/04 06:27:28;;;;;;;53.23;30.77;;;;;;;-0.62;100.00;101576.28;4987393;28;20619;-64
2022/12/04 06:29:53;;;;;;;52.00;31.43;;;;;;;-0.62;100.00;101574.66;4986927;28;20108;-64
2022/12/04 06:32:19;;;;;;;54.40;31.67;;;;;;;-0.66;100.00;101570.03;4988290;28;20030;-64
2022/12/04 06:34:44;;;;;;;58.47;32.83;;;;;;;-0.64;100.00;101571.06;4987203;28;20073;-64
2022/12/04 06:37:09;;;;;;;50.93;31.17;;;;;;;-0.63;100.00;101577.06;4987475;28;20026;-64
2022/12/04 06:39:35;;;;;;;53.93;32.07;;;;;;;-0.64;100.00;101572.69;4987283;28;20026;-64
2022/12/04 06:42:00;;;;;;;56.73;30.37;;;;;;;-0.64;100.00;101575.25;4987106;28;20096;-64
2022/12/04 06:44:25;;;;;;;53.83;32.73;;;;;;;-0.65;100.00;101576.03;4986682;28;20195;-64
2022/12/04 06:46:50;;;;;;;54.00;30.73;;;;;;;-0.65;100.00;101578.56;4986424;28;20038;-64
2022/12/04 06:49:16;;;;;;;58.17;32.40;;;;;;;-0.66;100.00;101575.13;4987252;28;20027;-64
2022/12/04 06:51:41;;;;;;;54.27;31.53;;;;;;;-0.67;100.00;101578.44;4986446;28;20145;-64
2022/12/04 06:54:08;;;;;;;55.23;31.17;;;;;;;-0.65;100.00;101574.34;4986818;28;20017;-64
2022/12/04 06:56:33;;;;;;;54.20;31.63;;;;;;;-0.65;100.00;101573.47;4986309;28;20026;-64
2022/12/04 06:59:01;;;;;;;52.83;30.27;;;;;;;-0.64;100.00;101578.69;4987013;28;20031;-64
2022/12/04 07:01:28;;;;;;;51.33;30.23;;;;;;;-0.62;100.00;101583.94;4986449;28;20113;-64
2022/12/04 07:03:55;;;;;;;52.03;31.83;;;;;;;-0.63;100.00;101589.78;4987089;28;20114;-64
2022/12/04 07:06:26;;;;;;;51.00;30.83;;;;;;;-0.65;100.00;101589.63;4986778;28;20034;-64
2022/12/04 07:08:56;;;;;;;52.93;29.87;;;;;;;-0.65;100.00;101589.63;4984513;28;20026;-64
2022/12/04 07:11:22;;;;;;;51.80;29.90;;;;;;;-0.63;100.00;101589.78;4984815;28;20113;-64
2022/12/04 07:13:48;;;;;;;55.10;31.47;;;;;;;-0.63;100.00;101590.66;4985636;28;20041;-64
2022/12/04 07:16:15;;;;;;;50.87;29.73;;;;;;;-0.61;100.00;101603.53;4986601;28;20374;-64
2022/12/04 07:18:41;;;;;;;52.67;30.97;;;;;;;-0.63;100.00;101599.97;4986434;28;20181;-65
2022/12/04 07:21:09;;;;;;;53.93;32.17;;;;;;;-0.63;100.00;101599.97;4986977;28;20122;-65
2022/12/04 07:23:35;;;;;;;54.07;30.80;;;;;;;-0.63;100.00;101605.94;4986301;28;20022;-64
2022/12/04 07:26:08;;;;;;;52.10;32.00;;;;;;;-0.62;100.00;101604.28;4986219;28;20138;-64
2022/12/04 07:28:34;;;;;;;52.63;30.30;;;;;;;-0.61;100.00;101608.63;4978279;28;20280;-64
2022/12/04 07:31:12;;;;;;;50.70;31.47;;;;;;;-0.59;100.00;101613.88;4985451;28;20084;-64
2022/12/04 07:33:38;;;;;;;51.60;30.43;;;;;;;-0.58;100.00;101616.56;4985234;28;20027;-64
2022/12/04 07:36:06;;;;;;;52.13;29.60;;;;;;;-0.57;100.00;101610.69;4983615;28;20092;-64
2022/12/04 07:38:33;;;;;;;49.03;28.20;;;;;;;-0.58;100.00;101615.66;4978471;28;20027;-64
2022/12/04 07:40:59;;;;;;;47.23;28.40;;;;;;;-0.58;100.00;101608.00;4984340;28;20594;-64
2022/12/04 07:43:26;;;;;;;43.93;27.73;;;;;;;-0.58;100.00;101613.09;4985874;28;20034;-65
2022/12/04 07:45:51;;;;;;;48.50;29.80;;;;;;;-0.59;100.00;101609.66;4988712;28;20097;-64
2022/12/04 07:48:17;;;;;;;45.93;28.53;;;;;;;-0.59;100.00;101607.09;4990238;28;20435;-64
2022/12/04 07:50:42;;;;;;;48.17;28.83;;;;;;;-0.58;100.00;101614.00;4990812;28;20018;-64
2022/12/04 07:53:08;;;;;;;45.67;27.70;;;;;;;-0.58;100.00;101619.09;4989904;28;20133;-64
2022/12/04 07:55:33;;;;;;;47.47;28.10;;;;;;;-0.57;100.00;101610.69;4990342;28;20069;-65
2022/12/04 07:57:58;;;;;;;46.47;28.47;;;;;;;-0.56;100.00;101622.69;4990433;28;20097;-64
2022/12/04 08:00:24;;;;;;;45.30;27.33;;;;;;;-0.55;100.00;101615.91;4986362;28;20022;-65
2022/12/04 08:02:49;;;;;;;44.10;27.00;;;;;;;-0.54;100.00;101626.25;4990755;28;20038;-64
2022/12/04 08:05:15;;;;;;;45.90;27.20;;;;;;;-0.57;100.00;101620.88;4989635;28;20023;-65
2022/12/04 08:07:41;;;;;;;42.57;26.47;;;;;;;-0.56;100.00;101625.22;4990936;28;20409;-64
2022/12/04 08:10:06;;;;;;;48.13;27.97;;;;;;;-0.55;100.00;101634.66;4990934;28;20031;-64
2022/12/04 08:12:32;;;;;;;43.67;26.60;;;;;;;-0.53;100.00;101627.16;4990106;28;20030;-64
2022/12/04 08:14:58;;;;;;;45.03;27.67;;;;;;;-0.54;100.00;101627.91;4989751;28;20656;-64
2022/12/04 08:17:23;;;;;;;45.23;26.57;;;;;;;-0.52;100.00;101629.81;4989974;28;20027;-64
2022/12/04 08:19:48;;;;;;;41.23;25.90;;;;;;;-0.50;100.00;101635.94;4990548;28;20034;-64
2022/12/04 08:22:14;;;;;;;40.93;26.87;;;;;;;-0.49;100.00;101637.72;4987492;28;20026;-64
2022/12/04 08:24:39;;;;;;;42.30;25.17;;;;;;;-0.46;100.00;101628.56;4987918;28;20034;-64
2022/12/04 08:27:04;;;;;;;41.07;24.57;;;;;;;-0.47;100.00;101635.34;4989569;28;20110;-64
2022/12/04 08:29:29;;;;;;;40.03;25.30;;;;;;;-0.46;100.00;101639.66;4989384;28;20040;-65
2022/12/04 08:31:55;;;;;;;39.73;24.63;;;;;;;-0.45;100.00;101636.34;4988785;28;20038;-64
2022/12/04 08:34:20;;;;;;;40.20;25.43;;;;;;;-0.49;100.00;101632.63;4988170;28;20026;-64
2022/12/04 08:36:45;;;;;;;41.93;24.30;;;;;;;-0.46;100.00;101634.56;4989023;28;20095;-64
2022/12/04 08:39:11;;;;;;;39.10;25.17;;;;;;;-0.43;100.00;101628.88;4987722;28;20034;-64
2022/12/04 08:41:37;;;;;;;37.73;23.93;;;;;;;-0.41;100.00;101627.34;4989433;28;20024;-64
2022/12/04 08:44:02;;;;;;;36.53;23.03;;;;;;;-0.39;100.00;101630.91;4989001;28;20081;-64
2022/12/04 08:46:28;;;;;;;33.67;22.43;;;;;;;-0.39;100.00;101633.47;4988219;28;20042;-64
2022/12/04 08:48:55;;;;;;;35.47;22.50;;;;;;;-0.38;100.00;101625.97;4988849;28;20030;-64
2022/12/04 08:51:23;;;;;;;38.23;23.30;;;;;;;-0.37;100.00;101615.03;4988991;28;20030;-64
2022/12/04 08:53:53;;;;;;;36.20;23.67;;;;;;;-0.38;100.00;101620.00;4988672;28;20034;-64
2022/12/04 08:56:18;;;;;;;33.87;22.37;;;;;;;-0.36;100.00;101615.94;4988435;28;20029;-64
2022/12/04 08:58:43;;;;;;;39.20;24.70;;;;;;;-0.33;100.00;101626.38;4989927;28;20034;-64
2022/12/04 09:01:11;;;;;;;32.37;21.83;;;;;;;-0.32;100.00;101617.97;4987560;28;20473;-62
2022/12/04 09:03:37;;;;;;;38.20;23.03;;;;;;;-0.28;100.00;101619.13;4989216;28;20092;-64
2022/12/04 09:06:04;;;;;;;35.47;22.10;;;;;;;-0.27;100.00;101615.84;4983500;28;20042;-64
2022/12/04 09:08:30;;;;;;;33.53;21.87;;;;;;;-0.23;100.00;101617.03;4989306;28;20529;-64
2022/12/04 09:11:12;;;;;;;35.90;22.33;;;;;;;-0.20;100.00;101617.28;4988202;28;20034;-64
2022/12/04 09:13:39;;;;;;;31.07;21.17;;;;;;;-0.22;100.00;101619.69;4988432;28;20029;-64
2022/12/04 09:16:07;;;;;;;32.47;21.03;;;;;;;-0.21;100.00;101631.66;4986190;28;20026;-64
2022/12/04 09:18:34;;;;;;;32.00;20.27;;;;;;;-0.21;100.00;101624.03;4987527;28;20053;-64
2022/12/04 09:21:01;;;;;;;30.57;21.07;;;;;;;-0.19;100.00;101624.16;4986452;28;20038;-64
2022/12/04 09:23:27;;;;;;;32.50;21.30;;;;;;;-0.16;100.00;101624.41;4987210;28;20034;-64
2022/12/04 09:25:53;;;;;;;32.93;20.40;;;;;;;-0.14;100.00;101631.44;4985994;28;20034;-64
2022/12/04 09:28:19;;;;;;;30.43;20.47;;;;;;;-0.10;100.00;101630.06;4986998;28;20026;-64
2022/12/04 09:30:45;;;;;;;32.47;21.00;;;;;;;-0.08;100.00;101642.94;4984143;28;20041;-64
2022/12/04 09:33:10;;;;;;;32.73;20.07;;;;;;;-0.06;100.00;101636.34;4988023;28;20026;-64
2022/12/04 09:35:37;;;;;;;32.73;20.67;;;;;;;-0.05;100.00;101628.81;4987351;28;20034;-64
2022/12/04 09:38:03;;;;;;;29.67;20.27;;;;;;;-0.09;100.00;101636.94;4987116;28;20105;-64
2022/12/04 09:40:36;;;;;;;30.97;19.77;;;;;;;-0.09;100.00;101634.41;4985238;28;20046;-64
2022/12/04 09:43:07;;;;;;;30.00;20.07;;;;;;;-0.08;100.00;101632.75;4988286;28;20368;-64
2022/12/04 09:45:45;;;;;;;30.47;20.57;;;;;;;-0.07;100.00;101635.44;4987108;28;20062;-64
2022/12/04 09:48:11;;;;;;;29.60;18.73;;;;;;;-0.06;100.00;101632.13;4985672;28;20030;-64
2022/12/04 09:50:42;;;;;;;27.90;18.90;;;;;;;-0.10;100.00;101635.16;4987739;28;20283;-65
2022/12/04 09:53:13;;;;;;;27.00;18.17;;;;;;;-0.16;100.00;101635.50;4987451;28;20022;-64
2022/12/04 09:55:46;;;;;;;;;;;;;;;-0.17;100.00;101643.03;4988771;28;20089;-64
2022/12/04 09:58:18;;;;;;;26.10;17.17;;;;;;;-0.17;100.00;101635.38;4987861;28;19909;-64
2022/12/04 10:00:48;;;;;;;28.03;17.80;;;;;;;-0.19;100.00;101629.25;4988031;28;20022;-64
2022/12/04 10:03:20;;;;;;;29.83;19.17;;;;;;;-0.20;100.00;101642.75;4987509;28;20014;-65
2022/12/04 10:06:04;;;;;;;26.00;17.43;;;;;;;-0.25;100.00;101634.69;4987216;28;20300;-64
2022/12/04 10:08:49;;;;;;;28.47;17.77;;;;;;;-0.27;100.00;101641.34;4986997;28;20038;-65
2022/12/04 10:11:43;;;;;;;28.00;17.83;;;;;;;-0.27;100.00;101633.69;4987001;28;20018;-65
2022/12/04 10:14:41;;;;;;;30.43;18.60;;;;;;;-0.26;100.00;101643.09;4987215;28;20033;-64
2022/12/04 10:17:48;;;;;;;27.23;18.50;;;;;;;-0.29;100.00;101636.06;4972335;28;20057;-64
2022/12/04 10:20:32;;;;;;;27.13;17.70;;;;;;;-0.26;100.00;101628.72;4985423;28;20042;-64
2022/12/04 10:23:00;;;;;;;28.27;17.90;;;;;;;-0.26;100.00;101623.63;4987448;28;20518;-64
2022/12/04 10:25:27;;;;;;;27.97;18.33;;;;;;;-0.27;100.00;101621.81;4987205;28;20026;-64
2022/12/04 10:27:56;;;;;;;28.03;18.23;;;;;;;-0.28;100.00;101634.44;4988059;28;20066;-64
2022/12/04 10:30:25;;;;;;;25.00;17.93;;;;;;;-0.34;100.00;101632.22;4987163;28;20088;-64
2022/12/04 10:33:13;;;;;;;31.27;18.30;;;;;;;-0.35;100.00;101627.91;4974188;28;20022;-64
2022/12/04 10:35:42;;;;;;;25.67;18.37;;;;;;;-0.39;100.00;101626.72;4987877;28;20321;-65
2022/12/04 10:38:51;;;;;;;25.87;17.40;;;;;;;-0.37;100.00;101630.31;4987064;28;20027;-64
2022/12/04 10:41:19;;;;;;;29.97;17.87;;;;;;;-0.36;100.00;101631.22;4979191;28;20049;-64
2022/12/04 10:43:46;;;;;;;31.20;19.63;;;;;;;-0.41;100.00;101633.34;4987150;28;20033;-64
2022/12/04 10:46:15;;;;;;;29.67;19.97;;;;;;;-0.39;100.00;101646.19;4986978;28;20062;-64
2022/12/04 10:48:46;;;;;;;27.97;17.93;;;;;;;-0.39;100.00;101647.09;4986656;28;20033;-64
2022/12/04 10:51:14;;;;;;;28.65;18.02;;;;;;;-0.39;100.00;101630.91;4988118;28;20141;-64
2022/12/04 10:53:39;;;;;;;28.40;18.63;;;;;;;-0.39;100.00;101636.00;4986590;28;20034;-65
2022/12/04 10:56:14;;;;;;;26.47;18.17;;;;;;;-0.39;100.00;101630.91;4987203;28;20037;-64
2022/12/04 10:58:40;;;;;;;29.17;19.00;;;;;;;-0.37;100.00;101630.31;4986731;28;20031;-65
2022/12/04 11:01:10;;;;;;;29.10;19.67;;;;;;;-0.34;100.00;101619.47;4981220;28;20033;-64
2022/12/04 11:03:36;;;;;;;26.47;18.10;;;;;;;-0.33;100.00;101621.28;4985387;28;20033;-64
2022/12/04 11:06:08;;;;;;;27.43;18.07;;;;;;;-0.35;100.00;101619.34;4986112;28;20379;-64
2022/12/04 11:08:48;;;;;;;26.80;18.30;;;;;;;-0.35;100.00;101611.72;4987227;28;20414;-64
2022/12/04 11:11:21;;;;;;;27.70;18.27;;;;;;;-0.41;100.00;101607.88;4985799;28;20060;-64
2022/12/04 11:13:46;;;;;;;29.63;19.37;;;;;;;-0.39;100.00;101614.00;4984308;28;20030;-64
2022/12/04 11:16:30;;;;;;;28.23;18.73;;;;;;;-0.38;100.00;101605.56;4986553;28;20044;-65
2022/12/04 11:18:55;;;;;;;26.33;17.73;;;;;;;-0.37;100.00;101602.28;4984165;28;20390;-64
2022/12/04 11:21:28;;;;;;;26.50;18.40;;;;;;;-0.36;100.00;101598.09;4980423;28;20031;-64
2022/12/04 11:23:53;;;;;;;25.40;17.83;;;;;;;-0.35;100.00;101602.41;4980531;28;20038;-64
2022/12/04 11:26:34;;;;;;;28.30;18.87;;;;;;;-0.33;100.00;101598.38;4985263;28;20061;-64